sensor_id;sensor_type;location;lat;lon;timestamp;temperature;humidity
18392;DHT22;9322;50.932;5.318;2023-08-12T00:00:08;21.90;1.40
18392;DHT22;9322;50.932;5.318;2023-08-12T00:02:43;21.90;1.40
18392;DHT22;9322;50.932;5.318;2023-08-12T00:05:10;22.00;1.40
18392;DHT22;9322;50.932;5.318;2023-08-12T00:07:39;21.90;1.40
18392;DHT22;9322;50.932;5.318;2023-08-12T00:10:10;22.00;1.40
18392;DHT22;9322;50.932;5.318;2023-08-12T00:12:36;22.00;1.40
18392;DHT22;9322;50.932;5.318;2023-08-12T00:15:03;21.90;1.40
18392;DHT22;9322;50.932;5.318;2023-08-12T00:17:30;21.80;1.40
18392;DHT22;9322;50.932;5.318;2023-08-12T00:19:55;21.80;1.40
18392;DHT22;9322;50.932;5.318;2023-08-12T00:22:22;21.80;1.40
18392;DHT22;9322;50.932;5.318;2023-08-12T00:24:48;21.80;1.40
18392;DHT22;9322;50.932;5.318;2023-08-12T00:27:14;21.80;1.40
18392;DHT22;9322;50.932;5.318;2023-08-12T00:29:39;21.70;1.40
18392;DHT22;9322;50.932;5.318;2023-08-12T00:32:05;21.80;1.40
18392;DHT22;9322;50.932;5.318;2023-08-12T00:34:31;21.80;1.40
18392;DHT22;9322;50.932;5.318;2023-08-12T00:36:57;21.80;1.40
18392;DHT22;9322;50.932;5.318;2023-08-12T00:39:22;21.80;1.40
18392;DHT22;9322;50.932;5.318;2023-08-12T00:41:48;21.80;1.40
18392;DHT22;9322;50.932;5.318;2023-08-12T00:44:14;21.80;1.40
18392;DHT22;9322;50.932;5.318;2023-08-12T00:46:41;21.80;1.40
18392;DHT22;9322;50.932;5.318;2023-08-12T00:49:07;21.70;1.40
18392;DHT22;9322;50.932;5.318;2023-08-12T00:51:34;21.70;1.40
18392;DHT22;9322;50.932;5.318;2023-08-12T00:54:05;21.60;1.40
18392;DHT22;9322;50.932;5.318;2023-08-12T00:56:31;21.60;1.40
18392;DHT22;9322;50.932;5.318;2023-08-12T00:58:59;21.60;1.40
18392;DHT22;9322;50.932;5.318;2023-08-12T01:01:25;21.80;1.40
18392;DHT22;9322;50.932;5.318;2023-08-12T01:03:51;21.80;1.40
18392;DHT22;9322;50.932;5.318;2023-08-12T01:06:17;21.70;1.40
18392;DHT22;9322;50.932;5.318;2023-08-12T01:08:43;21.60;1.40
18392;DHT22;9322;50.932;5.318;2023-08-12T01:14:14;21.70;1.40
18392;DHT22;9322;50.932;5.318;2023-08-12T01:16:44;21.70;1.40
18392;DHT22;9322;50.932;5.318;2023-08-12T01:19:21;21.60;1.40
18392;DHT22;9322;50.932;5.318;2023-08-12T01:21:52;21.60;1.40
18392;DHT22;9322;50.932;5.318;2023-08-12T01:24:24;21.70;1.40
18392;DHT22;9322;50.932;5.318;2023-08-12T01:26:49;21.70;1.40
18392;DHT22;9322;50.932;5.318;2023-08-12T01:29:16;21.60;1.40
18392;DHT22;9322;50.932;5.318;2023-08-12T01:32:09;21.60;1.40
18392;DHT22;9322;50.932;5.318;2023-08-12T01:37:32;21.70;1.40
18392;DHT22;9322;50.932;5.318;2023-08-12T01:40:01;21.70;1.40
18392;DHT22;9322;50.932;5.318;2023-08-12T01:42:31;21.60;1.40
18392;DHT22;9322;50.932;5.318;2023-08-12T01:44:57;21.60;1.40
18392;DHT22;9322;50.932;5.318;2023-08-12T01:47:23;21.50;1.40
18392;DHT22;9322;50.932;5.318;2023-08-12T01:49:48;21.60;1.40
18392;DHT22;9322;50.932;5.318;2023-08-12T01:52:14;21.60;1.40
18392;DHT22;9322;50.932;5.318;2023-08-12T01:54:40;21.50;1.40
18392;DHT22;9322;50.932;5.318;2023-08-12T01:57:06;21.60;1.40
18392;DHT22;9322;50.932;5.318;2023-08-12T01:59:36;21.60;1.40
18392;DHT22;9322;50.932;5.318;2023-08-12T02:02:02;21.50;1.40
18392;DHT22;9322;50.932;5.318;2023-08-12T02:04:28;21.60;1.40
18392;DHT22;9322;50.932;5.318;2023-08-12T02:06:54;21.60;1.40
18392;DHT22;9322;50.932;5.318;2023-08-12T02:09:20;21.60;1.40
18392;DHT22;9322;50.932;5.318;2023-08-12T02:11:46;21.70;1.40
18392;DHT22;9322;50.932;5.318;2023-08-12T02:14:12;21.60;1.40
18392;DHT22;9322;50.932;5.318;2023-08-12T02:16:37;21.50;1.40
18392;DHT22;9322;50.932;5.318;2023-08-12T02:19:03;21.50;1.40
18392;DHT22;9322;50.932;5.318;2023-08-12T02:21:29;21.40;1.40
18392;DHT22;9322;50.932;5.318;2023-08-12T02:23:55;21.40;1.40
18392;DHT22;9322;50.932;5.318;2023-08-12T02:26:20;21.40;1.40
18392;DHT22;9322;50.932;5.318;2023-08-12T02:28:46;21.40;1.40
18392;DHT22;9322;50.932;5.318;2023-08-12T02:31:12;21.40;1.40
18392;DHT22;9322;50.932;5.318;2023-08-12T02:33:37;21.40;1.40
18392;DHT22;9322;50.932;5.318;2023-08-12T02:36:03;21.60;1.40
18392;DHT22;9322;50.932;5.318;2023-08-12T02:38:29;21.60;1.40
18392;DHT22;9322;50.932;5.318;2023-08-12T02:40:55;21.60;1.40
18392;DHT22;9322;50.932;5.318;2023-08-12T02:43:21;21.60;1.40
18392;DHT22;9322;50.932;5.318;2023-08-12T02:45:46;21.50;1.40
18392;DHT22;9322;50.932;5.318;2023-08-12T02:48:12;21.50;1.40
18392;DHT22;9322;50.932;5.318;2023-08-12T02:50:39;21.40;1.40
18392;DHT22;9322;50.932;5.318;2023-08-12T02:53:05;21.40;1.40
18392;DHT22;9322;50.932;5.318;2023-08-12T02:55:31;21.40;1.40
18392;DHT22;9322;50.932;5.318;2023-08-12T02:58:00;21.60;1.40
18392;DHT22;9322;50.932;5.318;2023-08-12T03:00:26;21.60;1.40
18392;DHT22;9322;50.932;5.318;2023-08-12T03:02:53;21.50;1.40
18392;DHT22;9322;50.932;5.318;2023-08-12T03:05:19;21.60;1.40
18392;DHT22;9322;50.932;5.318;2023-08-12T03:07:44;21.60;1.40
18392;DHT22;9322;50.932;5.318;2023-08-12T03:10:10;21.60;1.40
18392;DHT22;9322;50.932;5.318;2023-08-12T03:12:36;21.60;1.40
18392;DHT22;9322;50.932;5.318;2023-08-12T03:15:03;21.60;1.40
18392;DHT22;9322;50.932;5.318;2023-08-12T03:17:28;21.60;1.40
18392;DHT22;9322;50.932;5.318;2023-08-12T03:19:54;21.60;1.40
18392;DHT22;9322;50.932;5.318;2023-08-12T03:22:20;21.60;1.40
18392;DHT22;9322;50.932;5.318;2023-08-12T03:24:47;21.50;1.40
18392;DHT22;9322;50.932;5.318;2023-08-12T03:27:13;21.60;1.40
18392;DHT22;9322;50.932;5.318;2023-08-12T03:29:38;21.70;1.40
18392;DHT22;9322;50.932;5.318;2023-08-12T03:32:04;21.70;1.40
18392;DHT22;9322;50.932;5.318;2023-08-12T03:34:30;21.70;1.40
18392;DHT22;9322;50.932;5.318;2023-08-12T03:36:55;21.60;1.40
18392;DHT22;9322;50.932;5.318;2023-08-12T03:39:21;21.60;1.40
18392;DHT22;9322;50.932;5.318;2023-08-12T03:41:47;21.60;1.40
18392;DHT22;9322;50.932;5.318;2023-08-12T03:44:15;21.50;1.40
18392;DHT22;9322;50.932;5.318;2023-08-12T03:46:41;21.20;1.40
18392;DHT22;9322;50.932;5.318;2023-08-12T03:49:07;21.10;1.40
18392;DHT22;9322;50.932;5.318;2023-08-12T03:51:33;21.00;1.40
18392;DHT22;9322;50.932;5.318;2023-08-12T03:53:58;20.90;1.40
18392;DHT22;9322;50.932;5.318;2023-08-12T03:56:24;20.90;1.40
18392;DHT22;9322;50.932;5.318;2023-08-12T03:58:51;20.90;1.40
18392;DHT22;9322;50.932;5.318;2023-08-12T04:01:16;20.80;1.40
18392;DHT22;9322;50.932;5.318;2023-08-12T04:03:42;20.80;1.40
18392;DHT22;9322;50.932;5.318;2023-08-12T04:06:08;20.80;1.40
18392;DHT22;9322;50.932;5.318;2023-08-12T04:08:33;20.80;1.40
18392;DHT22;9322;50.932;5.318;2023-08-12T04:10:59;20.90;1.40
18392;DHT22;9322;50.932;5.318;2023-08-12T04:13:25;20.80;1.40
18392;DHT22;9322;50.932;5.318;2023-08-12T04:15:51;20.70;1.40
18392;DHT22;9322;50.932;5.318;2023-08-12T04:18:19;20.60;1.40
18392;DHT22;9322;50.932;5.318;2023-08-12T04:20:45;20.50;1.40
18392;DHT22;9322;50.932;5.318;2023-08-12T04:23:12;20.50;1.40
18392;DHT22;9322;50.932;5.318;2023-08-12T04:25:38;20.60;1.40
18392;DHT22;9322;50.932;5.318;2023-08-12T04:28:04;20.50;1.40
18392;DHT22;9322;50.932;5.318;2023-08-12T04:30:30;20.60;1.40
18392;DHT22;9322;50.932;5.318;2023-08-12T04:32:55;20.60;1.40
18392;DHT22;9322;50.932;5.318;2023-08-12T04:35:21;20.60;1.40
18392;DHT22;9322;50.932;5.318;2023-08-12T04:37:46;20.60;1.40
18392;DHT22;9322;50.932;5.318;2023-08-12T04:40:12;20.70;1.40
18392;DHT22;9322;50.932;5.318;2023-08-12T04:42:38;20.70;1.40
18392;DHT22;9322;50.932;5.318;2023-08-12T04:45:04;20.60;1.40
18392;DHT22;9322;50.932;5.318;2023-08-12T04:47:30;20.60;1.40
18392;DHT22;9322;50.932;5.318;2023-08-12T04:49:56;20.50;1.40
18392;DHT22;9322;50.932;5.318;2023-08-12T04:52:21;20.50;1.40
18392;DHT22;9322;50.932;5.318;2023-08-12T04:54:47;20.50;1.40
18392;DHT22;9322;50.932;5.318;2023-08-12T04:57:12;20.40;1.40
18392;DHT22;9322;50.932;5.318;2023-08-12T04:59:38;20.50;1.40
18392;DHT22;9322;50.932;5.318;2023-08-12T05:02:04;20.40;1.40
18392;DHT22;9322;50.932;5.318;2023-08-12T05:04:29;20.30;1.40
18392;DHT22;9322;50.932;5.318;2023-08-12T05:06:55;20.20;1.40
18392;DHT22;9322;50.932;5.318;2023-08-12T05:09:21;20.10;1.40
18392;DHT22;9322;50.932;5.318;2023-08-12T05:11:46;20.20;1.40
18392;DHT22;9322;50.932;5.318;2023-08-12T05:14:12;20.20;1.40
18392;DHT22;9322;50.932;5.318;2023-08-12T05:16:38;20.20;1.40
18392;DHT22;9322;50.932;5.318;2023-08-12T05:19:03;20.20;1.40
18392;DHT22;9322;50.932;5.318;2023-08-12T05:21:29;20.30;1.40
18392;DHT22;9322;50.932;5.318;2023-08-12T05:23:55;20.30;1.40
18392;DHT22;9322;50.932;5.318;2023-08-12T05:26:20;20.20;1.40
18392;DHT22;9322;50.932;5.318;2023-08-12T05:28:46;20.20;1.40
18392;DHT22;9322;50.932;5.318;2023-08-12T05:31:12;20.20;1.40
18392;DHT22;9322;50.932;5.318;2023-08-12T05:33:37;20.20;1.40
18392;DHT22;9322;50.932;5.318;2023-08-12T05:36:03;20.10;1.40
18392;DHT22;9322;50.932;5.318;2023-08-12T05:38:29;20.20;1.40
18392;DHT22;9322;50.932;5.318;2023-08-12T05:40:55;20.20;1.40
18392;DHT22;9322;50.932;5.318;2023-08-12T05:43:20;20.20;1.40
18392;DHT22;9322;50.932;5.318;2023-08-12T05:45:46;20.20;1.40
18392;DHT22;9322;50.932;5.318;2023-08-12T05:48:13;20.10;1.40
18392;DHT22;9322;50.932;5.318;2023-08-12T05:50:38;20.20;1.40
18392;DHT22;9322;50.932;5.318;2023-08-12T05:53:04;20.30;1.40
18392;DHT22;9322;50.932;5.318;2023-08-12T05:55:30;20.30;1.40
18392;DHT22;9322;50.932;5.318;2023-08-12T05:57:55;20.30;1.40
18392;DHT22;9322;50.932;5.318;2023-08-12T06:00:21;20.20;1.40
18392;DHT22;9322;50.932;5.318;2023-08-12T06:02:47;20.20;1.40
18392;DHT22;9322;50.932;5.318;2023-08-12T06:05:13;20.30;1.40
18392;DHT22;9322;50.932;5.318;2023-08-12T06:07:39;20.40;1.40
18392;DHT22;9322;50.932;5.318;2023-08-12T06:10:05;20.40;1.40
18392;DHT22;9322;50.932;5.318;2023-08-12T06:12:30;20.40;1.40
18392;DHT22;9322;50.932;5.318;2023-08-12T06:14:56;20.50;1.40
18392;DHT22;9322;50.932;5.318;2023-08-12T06:17:22;20.40;1.40
18392;DHT22;9322;50.932;5.318;2023-08-12T06:19:47;20.50;1.40
18392;DHT22;9322;50.932;5.318;2023-08-12T06:22:13;20.50;1.40
18392;DHT22;9322;50.932;5.318;2023-08-12T06:24:39;20.60;1.40
18392;DHT22;9322;50.932;5.318;2023-08-12T06:27:05;20.60;1.40
18392;DHT22;9322;50.932;5.318;2023-08-12T06:29:31;20.50;1.40
18392;DHT22;9322;50.932;5.318;2023-08-12T06:31:57;20.50;1.40
18392;DHT22;9322;50.932;5.318;2023-08-12T06:34:23;20.60;1.40
18392;DHT22;9322;50.932;5.318;2023-08-12T06:36:54;20.50;1.40
18392;DHT22;9322;50.932;5.318;2023-08-12T06:39:20;20.60;1.40
18392;DHT22;9322;50.932;5.318;2023-08-12T06:41:45;20.50;1.40
18392;DHT22;9322;50.932;5.318;2023-08-12T06:44:11;20.60;1.40
18392;DHT22;9322;50.932;5.318;2023-08-12T06:46:37;20.60;1.40
18392;DHT22;9322;50.932;5.318;2023-08-12T06:49:02;20.50;1.40
18392;DHT22;9322;50.932;5.318;2023-08-12T06:51:28;20.60;1.40
18392;DHT22;9322;50.932;5.318;2023-08-12T06:53:53;20.80;1.40
18392;DHT22;9322;50.932;5.318;2023-08-12T06:56:19;20.70;1.40
18392;DHT22;9322;50.932;5.318;2023-08-12T06:58:45;20.80;1.40
18392;DHT22;9322;50.932;5.318;2023-08-12T07:01:11;20.90;1.40
18392;DHT22;9322;50.932;5.318;2023-08-12T07:03:36;20.90;1.40
18392;DHT22;9322;50.932;5.318;2023-08-12T07:06:02;21.00;1.40
18392;DHT22;9322;50.932;5.318;2023-08-12T07:08:28;21.10;1.40
18392;DHT22;9322;50.932;5.318;2023-08-12T07:10:54;21.10;1.40
18392;DHT22;9322;50.932;5.318;2023-08-12T07:13:19;21.00;1.40
18392;DHT22;9322;50.932;5.318;2023-08-12T07:15:45;21.20;1.40
18392;DHT22;9322;50.932;5.318;2023-08-12T07:18:11;21.10;1.40
18392;DHT22;9322;50.932;5.318;2023-08-12T07:20:36;21.20;1.40
18392;DHT22;9322;50.932;5.318;2023-08-12T07:23:02;21.20;1.40
18392;DHT22;9322;50.932;5.318;2023-08-12T07:25:28;21.30;1.40
18392;DHT22;9322;50.932;5.318;2023-08-12T07:27:53;21.20;1.40
18392;DHT22;9322;50.932;5.318;2023-08-12T07:30:19;21.10;1.40
18392;DHT22;9322;50.932;5.318;2023-08-12T07:32:44;21.30;1.40
18392;DHT22;9322;50.932;5.318;2023-08-12T07:35:10;21.40;1.40
18392;DHT22;9322;50.932;5.318;2023-08-12T07:37:36;21.40;1.40
18392;DHT22;9322;50.932;5.318;2023-08-12T07:40:02;21.70;1.40
18392;DHT22;9322;50.932;5.318;2023-08-12T07:42:28;21.80;1.40
18392;DHT22;9322;50.932;5.318;2023-08-12T07:44:54;22.10;1.40
18392;DHT22;9322;50.932;5.318;2023-08-12T07:47:20;22.10;1.40
18392;DHT22;9322;50.932;5.318;2023-08-12T07:49:45;22.10;1.40
18392;DHT22;9322;50.932;5.318;2023-08-12T07:52:11;22.20;1.40
18392;DHT22;9322;50.932;5.318;2023-08-12T07:54:37;22.50;1.40
18392;DHT22;9322;50.932;5.318;2023-08-12T07:57:02;22.30;1.40
18392;DHT22;9322;50.932;5.318;2023-08-12T07:59:29;22.50;1.40
18392;DHT22;9322;50.932;5.318;2023-08-12T08:01:54;22.30;1.40
18392;DHT22;9322;50.932;5.318;2023-08-12T08:04:20;22.20;1.40
18392;DHT22;9322;50.932;5.318;2023-08-12T08:06:46;22.20;1.40
18392;DHT22;9322;50.932;5.318;2023-08-12T08:09:11;22.10;1.40
18392;DHT22;9322;50.932;5.318;2023-08-12T08:11:37;22.10;1.40
18392;DHT22;9322;50.932;5.318;2023-08-12T08:14:03;22.30;1.40
18392;DHT22;9322;50.932;5.318;2023-08-12T08:16:29;22.40;1.40
18392;DHT22;9322;50.932;5.318;2023-08-12T08:18:54;22.60;1.40
18392;DHT22;9322;50.932;5.318;2023-08-12T08:21:20;22.60;1.40
18392;DHT22;9322;50.932;5.318;2023-08-12T08:23:46;22.60;1.40
18392;DHT22;9322;50.932;5.318;2023-08-12T08:26:12;22.50;1.40
18392;DHT22;9322;50.932;5.318;2023-08-12T08:28:40;22.50;1.40
18392;DHT22;9322;50.932;5.318;2023-08-12T08:31:05;22.40;1.40
18392;DHT22;9322;50.932;5.318;2023-08-12T08:33:31;22.40;1.40
18392;DHT22;9322;50.932;5.318;2023-08-12T08:35:56;22.40;1.40
18392;DHT22;9322;50.932;5.318;2023-08-12T08:38:22;22.40;1.40
18392;DHT22;9322;50.932;5.318;2023-08-12T08:40:51;22.40;1.40
18392;DHT22;9322;50.932;5.318;2023-08-12T08:43:21;22.40;1.40
18392;DHT22;9322;50.932;5.318;2023-08-12T08:45:52;22.40;1.40
18392;DHT22;9322;50.932;5.318;2023-08-12T08:48:19;22.40;1.40
18392;DHT22;9322;50.932;5.318;2023-08-12T08:50:47;22.40;1.40
18392;DHT22;9322;50.932;5.318;2023-08-12T08:53:14;22.50;1.40
18392;DHT22;9322;50.932;5.318;2023-08-12T08:55:41;22.50;1.40
18392;DHT22;9322;50.932;5.318;2023-08-12T08:58:07;22.60;1.40
18392;DHT22;9322;50.932;5.318;2023-08-12T09:00:32;22.60;1.40
18392;DHT22;9322;50.932;5.318;2023-08-12T09:02:59;22.70;1.40
18392;DHT22;9322;50.932;5.318;2023-08-12T09:05:26;22.80;1.40
18392;DHT22;9322;50.932;5.318;2023-08-12T09:07:54;23.00;1.40
18392;DHT22;9322;50.932;5.318;2023-08-12T09:10:21;22.90;1.40
18392;DHT22;9322;50.932;5.318;2023-08-12T09:12:49;22.90;1.40
18392;DHT22;9322;50.932;5.318;2023-08-12T09:15:18;22.90;1.40
18392;DHT22;9322;50.932;5.318;2023-08-12T09:17:44;23.00;1.40
18392;DHT22;9322;50.932;5.318;2023-08-12T09:20:10;23.10;1.40
18392;DHT22;9322;50.932;5.318;2023-08-12T09:22:42;23.20;1.40
18392;DHT22;9322;50.932;5.318;2023-08-12T09:25:09;22.80;1.40
18392;DHT22;9322;50.932;5.318;2023-08-12T09:27:36;23.00;1.40
18392;DHT22;9322;50.932;5.318;2023-08-12T09:30:03;23.30;1.40
18392;DHT22;9322;50.932;5.318;2023-08-12T09:32:30;23.60;1.40
18392;DHT22;9322;50.932;5.318;2023-08-12T09:34:56;23.90;1.40
18392;DHT22;9322;50.932;5.318;2023-08-12T09:37:23;23.90;1.40
18392;DHT22;9322;50.932;5.318;2023-08-12T09:39:50;23.50;1.40
18392;DHT22;9322;50.932;5.318;2023-08-12T09:42:17;23.20;1.40
18392;DHT22;9322;50.932;5.318;2023-08-12T09:44:43;23.20;1.40
18392;DHT22;9322;50.932;5.318;2023-08-12T09:47:09;23.40;1.40
18392;DHT22;9322;50.932;5.318;2023-08-12T09:49:36;23.80;1.40
18392;DHT22;9322;50.932;5.318;2023-08-12T09:52:06;24.10;1.40
18392;DHT22;9322;50.932;5.318;2023-08-12T09:54:33;24.10;1.40
18392;DHT22;9322;50.932;5.318;2023-08-12T09:57:00;24.30;1.40
18392;DHT22;9322;50.932;5.318;2023-08-12T09:59:33;24.50;1.40
18392;DHT22;9322;50.932;5.318;2023-08-12T10:02:01;24.80;1.40
18392;DHT22;9322;50.932;5.318;2023-08-12T10:04:33;25.10;1.40
18392;DHT22;9322;50.932;5.318;2023-08-12T10:07:01;25.90;1.40
18392;DHT22;9322;50.932;5.318;2023-08-12T10:09:28;26.40;1.40
18392;DHT22;9322;50.932;5.318;2023-08-12T10:11:53;26.60;1.40
18392;DHT22;9322;50.932;5.318;2023-08-12T10:14:21;26.50;1.40
18392;DHT22;9322;50.932;5.318;2023-08-12T10:16:47;26.40;1.40
18392;DHT22;9322;50.932;5.318;2023-08-12T10:19:16;26.20;1.40
18392;DHT22;9322;50.932;5.318;2023-08-12T10:21:43;25.80;1.40
18392;DHT22;9322;50.932;5.318;2023-08-12T10:24:10;25.50;1.40
18392;DHT22;9322;50.932;5.318;2023-08-12T10:26:38;25.30;1.40
18392;DHT22;9322;50.932;5.318;2023-08-12T10:29:04;25.00;1.40
18392;DHT22;9322;50.932;5.318;2023-08-12T10:31:29;24.90;1.40
18392;DHT22;9322;50.932;5.318;2023-08-12T10:33:57;25.40;1.40
18392;DHT22;9322;50.932;5.318;2023-08-12T10:36:23;26.10;1.40
18392;DHT22;9322;50.932;5.318;2023-08-12T10:38:49;26.90;1.40
18392;DHT22;9322;50.932;5.318;2023-08-12T10:41:22;27.40;1.40
18392;DHT22;9322;50.932;5.318;2023-08-12T10:43:54;27.40;1.40
18392;DHT22;9322;50.932;5.318;2023-08-12T10:51:43;25.50;1.40
18392;DHT22;9322;50.932;5.318;2023-08-12T10:54:30;25.60;1.40
18392;DHT22;9322;50.932;5.318;2023-08-12T11:05:00;27.20;1.40
18392;DHT22;9322;50.932;5.318;2023-08-12T11:07:39;26.20;1.40
18392;DHT22;9322;50.932;5.318;2023-08-12T11:10:13;25.50;1.40
18392;DHT22;9322;50.932;5.318;2023-08-12T11:13:02;24.90;1.40
18392;DHT22;9322;50.932;5.318;2023-08-12T11:15:40;24.90;1.40
18392;DHT22;9322;50.932;5.318;2023-08-12T11:18:16;24.90;1.40
18392;DHT22;9322;50.932;5.318;2023-08-12T11:20:42;24.90;1.40
18392;DHT22;9322;50.932;5.318;2023-08-12T11:23:09;24.90;1.40
18392;DHT22;9322;50.932;5.318;2023-08-12T11:25:36;25.20;1.40
18392;DHT22;9322;50.932;5.318;2023-08-12T11:28:04;25.10;1.40
18392;DHT22;9322;50.932;5.318;2023-08-12T11:30:30;25.40;1.40
18392;DHT22;9322;50.932;5.318;2023-08-12T11:32:56;25.90;1.40
18392;DHT22;9322;50.932;5.318;2023-08-12T11:35:23;26.40;1.40
18392;DHT22;9322;50.932;5.318;2023-08-12T11:37:51;26.20;1.40
18392;DHT22;9322;50.932;5.318;2023-08-12T11:40:19;26.60;1.40
18392;DHT22;9322;50.932;5.318;2023-08-12T11:42:47;27.20;1.40
18392;DHT22;9322;50.932;5.318;2023-08-12T11:45:15;28.10;1.40
18392;DHT22;9322;50.932;5.318;2023-08-12T11:47:41;28.40;1.40
18392;DHT22;9322;50.932;5.318;2023-08-12T11:50:09;28.70;1.40
18392;DHT22;9322;50.932;5.318;2023-08-12T11:52:36;29.20;1.40
18392;DHT22;9322;50.932;5.318;2023-08-12T11:55:03;30.10;1.40
18392;DHT22;9322;50.932;5.318;2023-08-12T11:57:30;31.20;1.40
18392;DHT22;9322;50.932;5.318;2023-08-12T12:00:06;31.80;1.40
18392;DHT22;9322;50.932;5.318;2023-08-12T12:02:48;32.60;1.40
18392;DHT22;9322;50.932;5.318;2023-08-12T12:05:16;33.20;1.40
18392;DHT22;9322;50.932;5.318;2023-08-12T12:07:42;33.20;1.40
18392;DHT22;9322;50.932;5.318;2023-08-12T12:10:13;32.60;1.40
18392;DHT22;9322;50.932;5.318;2023-08-12T12:12:39;31.80;1.40
18392;DHT22;9322;50.932;5.318;2023-08-12T12:15:05;30.70;1.40
18392;DHT22;9322;50.932;5.318;2023-08-12T12:17:31;30.00;1.40
18392;DHT22;9322;50.932;5.318;2023-08-12T12:19:59;29.50;1.40
18392;DHT22;9322;50.932;5.318;2023-08-12T12:22:29;28.80;1.40
18392;DHT22;9322;50.932;5.318;2023-08-12T12:24:58;28.20;1.40
18392;DHT22;9322;50.932;5.318;2023-08-12T12:27:25;28.00;1.40
18392;DHT22;9322;50.932;5.318;2023-08-12T12:29:51;28.00;1.40
18392;DHT22;9322;50.932;5.318;2023-08-12T12:32:21;27.80;1.40
18392;DHT22;9322;50.932;5.318;2023-08-12T12:34:47;27.60;1.40
18392;DHT22;9322;50.932;5.318;2023-08-12T12:37:13;27.30;1.40
18392;DHT22;9322;50.932;5.318;2023-08-12T12:39:39;27.00;1.40
18392;DHT22;9322;50.932;5.318;2023-08-12T12:42:05;27.00;1.40
18392;DHT22;9322;50.932;5.318;2023-08-12T12:44:31;27.00;1.40
18392;DHT22;9322;50.932;5.318;2023-08-12T12:46:57;26.90;1.40
18392;DHT22;9322;50.932;5.318;2023-08-12T12:49:23;27.00;1.40
18392;DHT22;9322;50.932;5.318;2023-08-12T12:51:49;27.00;1.40
18392;DHT22;9322;50.932;5.318;2023-08-12T12:54:15;27.00;1.40
18392;DHT22;9322;50.932;5.318;2023-08-12T12:56:41;26.80;1.40
18392;DHT22;9322;50.932;5.318;2023-08-12T12:59:06;26.80;1.40
18392;DHT22;9322;50.932;5.318;2023-08-12T13:01:33;26.80;1.40
18392;DHT22;9322;50.932;5.318;2023-08-12T13:03:58;26.80;1.40
18392;DHT22;9322;50.932;5.318;2023-08-12T13:06:24;26.60;1.40
18392;DHT22;9322;50.932;5.318;2023-08-12T13:08:50;26.50;1.40
18392;DHT22;9322;50.932;5.318;2023-08-12T13:11:16;26.30;1.40
18392;DHT22;9322;50.932;5.318;2023-08-12T13:13:41;25.70;1.40
18392;DHT22;9322;50.932;5.318;2023-08-12T13:16:07;25.60;1.40
18392;DHT22;9322;50.932;5.318;2023-08-12T13:18:36;25.90;1.40
18392;DHT22;9322;50.932;5.318;2023-08-12T13:21:01;26.10;1.40
18392;DHT22;9322;50.932;5.318;2023-08-12T13:23:27;26.30;1.40
18392;DHT22;9322;50.932;5.318;2023-08-12T13:25:53;26.30;1.40
18392;DHT22;9322;50.932;5.318;2023-08-12T13:28:18;26.20;1.40
18392;DHT22;9322;50.932;5.318;2023-08-12T13:30:45;26.30;1.40
18392;DHT22;9322;50.932;5.318;2023-08-12T13:33:11;26.50;1.40
18392;DHT22;9322;50.932;5.318;2023-08-12T13:35:37;26.20;1.40
18392;DHT22;9322;50.932;5.318;2023-08-12T13:38:03;26.40;1.40
18392;DHT22;9322;50.932;5.318;2023-08-12T13:40:29;26.40;1.40
18392;DHT22;9322;50.932;5.318;2023-08-12T13:42:55;26.30;1.40
18392;DHT22;9322;50.932;5.318;2023-08-12T13:45:21;26.30;1.40
18392;DHT22;9322;50.932;5.318;2023-08-12T13:47:46;26.30;1.40
18392;DHT22;9322;50.932;5.318;2023-08-12T13:50:12;26.20;1.40
18392;DHT22;9322;50.932;5.318;2023-08-12T13:52:39;26.40;1.40
18392;DHT22;9322;50.932;5.318;2023-08-12T13:55:05;26.30;1.40
18392;DHT22;9322;50.932;5.318;2023-08-12T13:57:31;26.40;1.40
18392;DHT22;9322;50.932;5.318;2023-08-12T13:59:56;26.30;1.40
18392;DHT22;9322;50.932;5.318;2023-08-12T14:02:22;26.30;1.40
18392;DHT22;9322;50.932;5.318;2023-08-12T14:04:48;26.40;1.40
18392;DHT22;9322;50.932;5.318;2023-08-12T14:07:14;26.30;1.40
18392;DHT22;9322;50.932;5.318;2023-08-12T14:09:41;26.00;1.40
18392;DHT22;9322;50.932;5.318;2023-08-12T14:12:07;26.00;1.40
18392;DHT22;9322;50.932;5.318;2023-08-12T14:14:33;26.10;1.40
18392;DHT22;9322;50.932;5.318;2023-08-12T14:16:58;26.00;1.40
18392;DHT22;9322;50.932;5.318;2023-08-12T14:19:24;26.00;1.40
18392;DHT22;9322;50.932;5.318;2023-08-12T14:21:49;26.10;1.40
18392;DHT22;9322;50.932;5.318;2023-08-12T14:24:15;26.10;1.40
18392;DHT22;9322;50.932;5.318;2023-08-12T14:26:41;26.00;1.40
18392;DHT22;9322;50.932;5.318;2023-08-12T14:29:06;25.90;1.40
18392;DHT22;9322;50.932;5.318;2023-08-12T14:31:33;26.10;1.40
18392;DHT22;9322;50.932;5.318;2023-08-12T14:33:59;26.30;1.40
18392;DHT22;9322;50.932;5.318;2023-08-12T14:36:26;26.40;1.40
18392;DHT22;9322;50.932;5.318;2023-08-12T14:38:52;26.30;1.40
18392;DHT22;9322;50.932;5.318;2023-08-12T14:41:18;26.00;1.40
18392;DHT22;9322;50.932;5.318;2023-08-12T14:43:43;25.90;1.40
18392;DHT22;9322;50.932;5.318;2023-08-12T14:46:09;26.00;1.40
18392;DHT22;9322;50.932;5.318;2023-08-12T14:48:35;26.30;1.40
18392;DHT22;9322;50.932;5.318;2023-08-12T14:51:00;26.20;1.40
18392;DHT22;9322;50.932;5.318;2023-08-12T14:53:26;26.30;1.40
18392;DHT22;9322;50.932;5.318;2023-08-12T14:55:52;26.10;1.40
18392;DHT22;9322;50.932;5.318;2023-08-12T14:58:18;26.00;1.40
18392;DHT22;9322;50.932;5.318;2023-08-12T15:00:43;25.80;1.40
18392;DHT22;9322;50.932;5.318;2023-08-12T15:03:09;25.70;1.40
18392;DHT22;9322;50.932;5.318;2023-08-12T15:05:36;25.90;1.40
18392;DHT22;9322;50.932;5.318;2023-08-12T15:08:02;25.90;1.40
18392;DHT22;9322;50.932;5.318;2023-08-12T15:10:29;25.90;1.40
18392;DHT22;9322;50.932;5.318;2023-08-12T15:12:55;25.90;1.40
18392;DHT22;9322;50.932;5.318;2023-08-12T15:15:21;25.60;1.40
18392;DHT22;9322;50.932;5.318;2023-08-12T15:17:46;25.60;1.40
18392;DHT22;9322;50.932;5.318;2023-08-12T15:20:12;25.30;1.40
18392;DHT22;9322;50.932;5.318;2023-08-12T15:22:38;25.20;1.40
18392;DHT22;9322;50.932;5.318;2023-08-12T15:25:05;25.10;1.40
18392;DHT22;9322;50.932;5.318;2023-08-12T15:27:31;25.10;1.40
18392;DHT22;9322;50.932;5.318;2023-08-12T15:29:56;25.10;1.40
18392;DHT22;9322;50.932;5.318;2023-08-12T15:32:22;24.90;1.40
18392;DHT22;9322;50.932;5.318;2023-08-12T15:34:48;24.90;1.40
18392;DHT22;9322;50.932;5.318;2023-08-12T15:37:14;24.90;1.40
18392;DHT22;9322;50.932;5.318;2023-08-12T15:39:39;25.00;1.40
18392;DHT22;9322;50.932;5.318;2023-08-12T15:42:06;25.00;1.40
18392;DHT22;9322;50.932;5.318;2023-08-12T15:44:32;24.90;1.40
18392;DHT22;9322;50.932;5.318;2023-08-12T15:46:57;24.80;1.40
18392;DHT22;9322;50.932;5.318;2023-08-12T15:49:24;24.80;1.40
18392;DHT22;9322;50.932;5.318;2023-08-12T15:51:49;25.00;1.40
18392;DHT22;9322;50.932;5.318;2023-08-12T15:54:15;25.00;1.40
18392;DHT22;9322;50.932;5.318;2023-08-12T15:56:41;25.00;1.40
18392;DHT22;9322;50.932;5.318;2023-08-12T15:59:06;25.00;1.40
18392;DHT22;9322;50.932;5.318;2023-08-12T16:01:33;25.00;1.40
18392;DHT22;9322;50.932;5.318;2023-08-12T16:03:59;25.10;1.40
18392;DHT22;9322;50.932;5.318;2023-08-12T16:06:25;25.00;1.40
18392;DHT22;9322;50.932;5.318;2023-08-12T16:08:51;25.00;1.40
18392;DHT22;9322;50.932;5.318;2023-08-12T16:11:17;24.90;1.40
18392;DHT22;9322;50.932;5.318;2023-08-12T16:13:43;24.90;1.40
18392;DHT22;9322;50.932;5.318;2023-08-12T16:16:10;24.90;1.40